Southern California Logo

Chula Vista, CA Condo Real Estate Listings

153 Total Real Estate Listings * Click on table heading to sort
Date Posted Property Type Style Address Price Living Area Lot Size Price/Sq Ft.
2018-02-16 Condo 1154 Pacific Grove Loop Chula Vista, CA 91915 $485,000 1,544 sq. ft. $314
2018-02-15 Condo 2163 Dutchman Ct Chula Vista, CA 91915 $418,900 1,464 sq. ft. $286
2018-02-15 Condo 1510 Connoley Ave Chula Vista, CA 91911 $340,000 1,513 sq. ft. 3,485 sq. ft. $225
2018-02-15 Condo 1487 De La Vina St Chula Vista, CA 91913 $499,900 1,694 sq. ft. 206,474 sq. ft. $295
2018-02-15 Condo 468 Anna Linda Ct Chula Vista, CA 91911 $369,000 1,032 sq. ft. 3,049 sq. ft. $358
2018-02-14 Condo Traditional 1452 Santa Victoria Rd Chula Vista, CA 91913 $449,900 1,588 sq. ft. $283
2018-02-14 Condo 1025 Fourth Ave Chula Vista, CA 91911 $279,000 860 sq. ft. 26,572 sq. ft. $324
2018-02-14 Condo 1450 Melrose Avenue 127 Chula Vista, CA 91911 $289,900 980 sq. ft. $296
2018-02-13 Condo Mediterranean/Spanish 725 Brookstone Rd Chula Vista, CA 91913 $378,000 1,166 sq. ft. 92,783 sq. ft. $324
2018-02-13 Condo 1740 Regency Way Chula Vista, CA 91911 $335,000 1,212 sq. ft. $276
2018-02-12 Condo 1256 Stampede Way Chula Vista, CA 91913 $425,000 1,505 sq. ft. $282
2018-02-12 Condo 88 Fourth Avenue Chula Vista, CA 91910 $389,900 1,291 sq. ft. $302
2018-02-12 Condo 400 Sanibelle Circle Chula Vista, CA 91910 $459,989 1,570 sq. ft. 57,064 sq. ft. $293
2018-02-12 Condo 717 Caminito Valiente Chula Vista, CA 91911 $375,000 1,034 sq. ft. $363
2018-02-12 Condo 521 Orange Ave Chula Vista, CA 91911 $189,900 1,368 sq. ft. $139
2018-02-11 Condo 500 Telegraph Canyon Chula Vista, CA 91910 $355,000 1,186 sq. ft. $299
2018-02-10 Condo 420 Sanibelle Circle Chula Vista, CA 91910 $365,000 920 sq. ft. $397
2018-02-10 Condo 2790 Sparta Road Chula Vista, CA 91915 $395,000 1,062 sq. ft. $372
2018-02-08 Condo Tudor/French Normandy 1598 Mount Tamalpais Chula Vista, CA 91913 $609,000 2,287 sq. ft. $266
2018-02-07 Condo 1553 First Star Dr Chula Vista, CA 91915 $539,000 1,491 sq. ft. 3,485 sq. ft. $362
2018-02-07 Condo 1244 El Cortez Chula Vista, CA 91910 $395,000 1,025 sq. ft. $385
2018-02-06 Condo 2192 Caminito Rinaldo Chula Vista, CA 91915 $399,000 1,336 sq. ft. 69,696 sq. ft. $299
2018-02-06 Condo 1729 Cripple Creek Dr Chula Vista, CA 91915 $389,800 1,625 sq. ft. 329,749 sq. ft. $240
2018-02-06 Condo 1520 San Borja St Chula Vista, CA 91913 $425,000 1,621 sq. ft. 23,087 sq. ft. $262
2018-02-06 Condo Contemporary 1261 El Cortez Chula Vista, CA 91910 $415,000 1,130 sq. ft. $367
2018-02-05 Condo 1391 Stanislaus Dr Chula Vista, CA 91913 $755,000 3,243 sq. ft. 6,098 sq. ft. $233
2018-02-05 Condo Traditional 775 Eastshore Terrace Chula Vista, CA 91913 $301,500 752 sq. ft. $401
2018-02-05 Condo 1434 Hilltop Dr Chula Vista, CA 91911 $280,000 1,036 sq. ft. $270
2018-02-03 Condo Mediterranean/Spanish 744 Eastshore Ter Chula Vista, CA 91913 $260,000 441 sq. ft. 14,375 sq. ft. $590
2018-02-03 Condo 1425 Egret St Chula Vista, CA 91913 $470,000 1,882 sq. ft. 395,525 sq. ft. $250
2018-02-02 Condo 1241 Santa Cora Ave Chula Vista, CA 91913 $345,000 1,230 sq. ft. 125,017 sq. ft. $280
2018-02-02 Condo 2154 Caminito Cinzia Chula Vista, CA 91915 $485,000 1,656 sq. ft. $293
2018-02-02 Condo 2134 Desert Bluffs Ct Chula Vista, CA 91915 $490,000 1,713 sq. ft. 276,606 sq. ft. $286
2018-02-02 Condo 2109 Northshore Dr Chula Vista, CA 91913 $515,000 1,570 sq. ft. $328
2018-02-01 Condo 2004 Caminito De La Cruz Chula Vista, CA 91913 $375,000 1,400 sq. ft. $268
2018-02-01 Condo Mediterranean/Spanish 2185 Caminito Novara Chula Vista, CA 91915 $489,900 1,656 sq. ft. $296
2018-02-01 Condo 1360 Callejon Palacios Chula Vista, CA 91910 $395,000 1,314 sq. ft. $301
2018-02-01 Condo 2271 Sweet Pea Lane Chula Vista, CA 91915 $499,988 1,870 sq. ft. $267
2018-01-31 Condo 288 Salinas Dr Chula Vista, CA 91914 $424,900 1,372 sq. ft. $310
2018-01-31 Condo 1297 Fools Gold Way Chula Vista, CA 91913 $354,900 1,071 sq. ft. 33,106 sq. ft. $331
2018-01-30 Condo 1826 Carolyn Drive Chula Vista, CA 91913 $525,000 1,980 sq. ft. $265
2018-01-30 Condo 1451 Claude Ln Chula Vista, CA 91913 $359,000 1,008 sq. ft. $356
2018-01-30 Condo 1934 Caminito Alcala Chula Vista, CA 91913 $398,000 1,400 sq. ft. $284
2018-01-28 Condo 2355 Calle Sabroso Chula Vista, CA 91914 $355,000 1,037 sq. ft. $342
2018-01-26 Condo 1443 Santa Rita Chula Vista, CA 91913 $524,900 1,598 sq. ft. $328
2018-01-25 Condo 2700 Box Elder Chula Vista, CA 91915 $339,000 964 sq. ft. $352
2018-01-25 Condo 2085 Lakeridge Circle Chula Vista, CA 91915 $320,000 956 sq. ft. $335
2018-01-25 Condo Mediterranean/Spanish 948 Caminito Estrella Chula Vista, CA 91910 $430,000 1,350 sq. ft. $319
2018-01-24 Condo Contemporary 2144 Caminito Elda Chula Vista, CA 91915 $390,000 1,386 sq. ft. $281
2018-01-24 Condo 1885 Miner Creek Ln Chula Vista, CA 91913 $350,000 1,032 sq. ft. 68,825 sq. ft. $339
2018-01-24 Condo 1539 Sonora Drive Chula Vista, CA 91911 $375,000 1,400 sq. ft. $268
2018-01-24 Condo Contemporary 1323 Cathedral Oaks Rd Chula Vista, CA 91913 $524,999 1,609 sq. ft. $326
2018-01-24 Condo Mediterranean/Spanish 2286 Alicante Cove Chula Vista, CA 91914 $465,000 1,554 sq. ft. $299
2018-01-24 Condo 321 Rancho Drive Chula Vista, CA 91911 $299,900 836 sq. ft. $359
2018-01-24 Condo 2788 Bear Valley Rd Chula Vista, CA 91915 $499,999 1,740 sq. ft. $287
2018-01-23 Condo 1508 Caminito Santiago Chula Vista, CA 91913 $455,000 1,830 sq. ft. $249
2018-01-23 Condo 1420 Hilltop Drive Chula Vista, CA 91911 $275,000 1,004 sq. ft. $274
2018-01-21 Condo 285 Moss St Chula Vista, CA 91911 $189,000 621 sq. ft. $304
2018-01-20 Condo 2370 Corte Isla Chula Vista, CA 91914 $399,000 1,468 sq. ft. $272
2018-01-19 Condo 2212 Caminito Livorno Chula Vista, CA 91915 $429,000 1,432 sq. ft. $300
2018-01-19 Condo Contemporary 1825 Olive Green Street Chula Vista, CA 91913 $559,000 2,253 sq. ft. $248
2018-01-19 Condo Contemporary 1369 Monument Trail Chula Vista, CA 91915 $419,900 1,368 sq. ft. $307
2018-01-18 Condo Traditional 1225 Bolinas Bay Ct Chula Vista, CA 91913 $689,000 2,888 sq. ft. $239
2018-01-18 Condo 1331 Caminito Fabrizio Chula Vista, CA 91915 $415,000 1,558 sq. ft. 74,052 sq. ft. $266
2018-01-18 Condo 2077 Lakeridge Circle Chula Vista, CA 91913 $375,000 1,166 sq. ft. $322
2018-01-18 Condo 285 Moss Chula Vista, CA 91911 $269,900 900 sq. ft. $300
2018-01-17 Condo 2137 Sand Dr Chula Vista, CA 91915 $499,000 1,713 sq. ft. $291
2018-01-17 Condo 1133 Pacifica Ave Chula Vista, CA 91913 $749,000 3,206 sq. ft. 6,534 sq. ft. $234
2018-01-16 Condo 1925 Impressionist Dr Chula Vista, CA 91913 $349,000 1,008 sq. ft. $346
2018-01-16 Condo 1321 Caminito Montarosa Chula Vista, CA 91915 $375,900 1,386 sq. ft. $271
2018-01-16 Condo 1355 Nicolette Ave Chula Vista, CA 91913 $329,000 975 sq. ft. 524,462 sq. ft. $337
2018-01-15 Condo 741 Caminito Estrella Chula Vista, CA 91910 $439,000 1,100 sq. ft. 18,731 sq. ft. $399
2018-01-15 Condo 2834 Athens Rd Chula Vista, CA 91915 $415,000 1,331 sq. ft. $312
2018-01-14 Condo 954 Caminito Estrella Chula Vista, CA 91910 $479,000 1,210 sq. ft. $396
2018-01-13 Condo Traditional 1640 Maple Dr Chula Vista, CA 91911 $365,000 1,576 sq. ft. $232
2018-01-13 Condo 1360 Caminito Amerigo Chula Vista, CA 91915 $390,000 1,259 sq. ft. $310
2018-01-13 Condo Mediterranean/Spanish 701 Eastshore Terrace Chula Vista, CA 91913 $275,000 520 sq. ft. 16,553 sq. ft. $529
2018-01-12 Condo 1450 Melrose Ave, Unit 41 Chula Vista, CA 91911 $289,900 980 sq. ft. $296
2018-01-11 Condo 2106 Element Way Chula Vista, CA 91915 $594,620 2,248 sq. ft. $265
2018-01-11 Condo 2384 Element Way Chula Vista, CA 91915 $427,000 1,430 sq. ft. $299
2018-01-10 Condo 1449 Carpinteria St Chula Vista, CA 91913 $630,000 2,465 sq. ft. 3,049 sq. ft. $256
2018-01-09 Condo 2394 Greenbriar Dr Chula Vista, CA 91915 $499,900 1,600 sq. ft. $312
2018-01-09 Condo 716 G St Unit C Chula Vista, CA 91910 $259,000 1,024 sq. ft. $253
2018-01-09 Condo 1563 Prescott Dr Chula Vista, CA 91915 $429,000 1,410 sq. ft. 64,033 sq. ft. $304
2018-01-09 Condo 2155 Caminito Leonzio Chula Vista, CA 91915 $350,000 1,336 sq. ft. $262
2018-01-08 Condo 695 Sea Vale St Chula Vista, CA 91910 $229,000 796 sq. ft. 68,389 sq. ft. $288
2018-01-08 Condo 1372 Nicolette Ave Chula Vista, CA 91913 $349,900 959 sq. ft. 524,462 sq. ft. $365
2018-01-05 Condo 409 Woodlawn Avenue Chula Vista, CA 91910 $310,000 1,056 sq. ft. $294
2018-01-04 Condo 1677 Melrose Avenue Chula Vista, CA 91911 $275,000 920 sq. ft. $299
2018-01-04 Condo Mediterranean/Spanish 1851 Rouge Dr Chula Vista, CA 91913 $399,900 1,350 sq. ft. $296
2018-01-04 Condo 610 Telegraph Canyon Rd Chula Vista, CA 91910 $349,900 1,168 sq. ft. 147,233 sq. ft. $300
2018-01-04 Condo 748 Eastshore Ter Chula Vista, CA 91913 $325,000 752 sq. ft. 33,106 sq. ft. $432
2018-01-04 Condo 1397 Serena Cir Chula Vista, CA 91910 $430,000 1,429 sq. ft. $301
2018-01-03 Condo 2046 Azure Cv Chula Vista, CA 91915 $417,000 1,525 sq. ft. 84,071 sq. ft. $273
2018-01-02 Condo Traditional 359 Plaza Los Osos Chula Vista, CA 91914 $729,900 2,782 sq. ft. $262
2018-01-01 Condo 1753 Cripple Creek Dr Chula Vista, CA 91915 $425,000 1,728 sq. ft. $246
2017-12-21 Condo 110 2nd Ave Chula Vista, CA 91910 $280,000 1,003 sq. ft. 172,062 sq. ft. $279
2017-12-19 Condo Ranch 709 Madison Ave Chula Vista, CA 91910 $269,000 812 sq. ft. $331
2017-12-10 Condo 2165 Caminito Leonzio Chula Vista, CA 91915 $389,900 1,386 sq. ft. 80,150 sq. ft. $281
2017-12-08 Condo 734 Eastshore Terrace Chula Vista, CA 91913 $334,900 937 sq. ft. $357
2017-12-08 Condo 1480 Knollwood Chula Vista, CA 91915 $695,000 2,514 sq. ft. 10,890 sq. ft. $276
2017-12-07 Condo 1453 Levant Ln Chula Vista, CA 91913 $359,000 1,008 sq. ft. 91,476 sq. ft. $356
2017-12-07 Condo 1875 Observation Way Chula Vista, CA 91915 $371,794 1,288 sq. ft. $289
2017-12-02 Condo 1420 Hilltop Dr Chula Vista, CA 91911 $279,000 1,004 sq. ft. $278
2017-12-01 Condo 368 Vance Street Chula Vista, CA 91910 $279,000 876 sq. ft. $318
2017-11-28 Condo 1305 Mother Lode Way #3 Chula Vista, CA 91913 $419,900 1,586 sq. ft. $265
2017-11-27 Condo 2150 Cabo Bahia Chula Vista, CA 91914 $342,999 1,024 sq. ft. $335
2017-11-26 Condo Modern 52 Sea Crest Drive Chula Vista, CA 91910 $549,990 1,708 sq. ft. $322
2017-11-26 Condo Modern 44 Sea Crest Drive Chula Vista, CA 91910 $589,990 1,938 sq. ft. $304
2017-11-18 Condo Mediterranean/Spanish 1327 Claim Jumper Chula Vista, CA 91913 $424,000 1,586 sq. ft. 38,768 sq. ft. $267
2017-11-15 Condo 2176 Element Way Chula Vista, CA 91915 $612,099 2,157 sq. ft. $284
2017-11-14 Condo 1872 Observation Way Chula Vista, CA 91915 $396,010 1,430 sq. ft. $277
2017-11-13 Condo 569 E St Chula Vista, CA 91910 $270,000 936 sq. ft. $288
2017-11-11 Condo 695 Sea Vale Chula Vista, CA 91910 $249,000 723 sq. ft. $344
2017-11-06 Condo 833 Caminito Cumbres Chula Vista, CA 91911 $480,000 1,630 sq. ft. $294
2017-11-06 Condo 588 Portsmouth Drive Chula Vista, CA 91911 $369,000 1,274 sq. ft. $290
2017-11-02 Condo 1165 Hanford Court Chula Vista, CA 91913 $698,888 2,519 sq. ft. 8,712 sq. ft. $277
2017-11-02 Condo Modern 720 Harbor Lane Chula Vista, CA 91910 $555,990 1,938 sq. ft. $287
2017-11-01 Condo 1423 Caminito Garibay Chula Vista, CA 91915 $445,000 1,723 sq. ft. 44,867 sq. ft. $258
2017-11-01 Condo 1295 Blue Jean Chula Vista, CA 91913 $410,000 1,529 sq. ft. $268
2017-10-30 Condo 683 Arrow Point Court Chula Vista, CA 91911 $400,000 2,262 sq. ft. $177
2017-10-27 Condo 2162 Barrel Ct Chula Vista, CA 91915 $419,000 1,561 sq. ft. $268
2017-10-27 Condo Contemporary 1449 Normandy Drive Chula Vista, CA 91913 $395,000 1,500 sq. ft. $263
2017-10-26 Condo 757 Eastshore Terrace Chula Vista, CA 91913 $317,000 757 sq. ft. $419
2017-10-25 Condo 1812 Olive Green St Chula Vista, CA 91913 $425,000 1,565 sq. ft. $272
2017-10-24 Condo Modern 709 Anchor Court Chula Vista, CA 91910 $446,490 1,708 sq. ft. $261
2017-10-24 Condo Modern 705 Anchor Court Chula Vista, CA 91910 $486,490 1,938 sq. ft. $251
2017-10-16 Condo 2155 Caminito Leonzio Chula Vista, CA 91915 $345,000 1,558 sq. ft. $221
2017-10-16 Condo 1397 Misty Ridge Place Chula Vista, CA 91913 $650,000 2,485 sq. ft. $262
2017-10-15 Condo 1595 Mendocino Dr Chula Vista, CA 91911 $299,900 1,045 sq. ft. $287
2017-10-13 Condo 355 Windjammer Circle Chula Vista, CA 91910 $395,000 975 sq. ft. $405
2017-10-12 Condo Contemporary 1889 Miner Creek Lane Chula Vista, CA 91913 $325,000 1,032 sq. ft. $315
2017-10-11 Condo 1811 Lime Ct Chula Vista, CA 91913 $415,000 1,419 sq. ft. 472,626 sq. ft. $292
2017-10-09 Condo 695 Sea Vale Street Chula Vista, CA 91910 $235,000 660 sq. ft. 68,389 sq. ft. $356
2017-10-05 Condo 1672 Puffin Pl Chula Vista, CA 91913 $409,000 1,504 sq. ft. $272
2017-09-28 Condo 1548 Dusk Sky Lane Chula Vista, CA 91915 $375,000 1,344 sq. ft. $279
2017-09-18 Condo Modern 710 Anchor Court Chula Vista, CA 91910 $446,490 1,708 sq. ft. $261
2017-09-16 Condo 1640 Maple Dr Chula Vista, CA 91911 $375,000 1,543 sq. ft. 504,860 sq. ft. $243
2017-08-28 Condo 2364 Element Way Chula Vista, CA 91915 $507,580 1,915 sq. ft. $265
2017-08-28 Condo 2162 Element Way Chula Vista, CA 91915 $609,080 2,248 sq. ft. $271
2017-08-23 Condo 1731 Melrose Ave Chula Vista, CA 91911 $350,000 1,434 sq. ft. $244
2017-08-16 Condo 2379 Element Way Chula Vista, CA 91915 $402,000 1,475 sq. ft. $273
2017-08-16 Condo 2166 Element Way Chula Vista, CA 91915 $618,330 2,248 sq. ft. $275
2017-08-16 Condo 2379 Element Way Chula Vista, CA 91915 $367,000 1,288 sq. ft. $285
2017-08-16 Condo 2379 Element Way Chula Vista, CA 91915 $388,000 1,430 sq. ft. $271
2017-07-11 Condo 764 Eastshore Ter Chula Vista, CA 91913 $299,900 669 sq. ft. 28,750 sq. ft. $448
2017-07-05 Condo 2321 Element Way Chula Vista, CA 91915 $384,000 1,430 sq. ft. $269
2017-07-01 Condo 2356 Element Way Chula Vista, CA 91915 $604,521 2,248 sq. ft. $269
2017-07-01 Condo 2176 Element Way Chula Vista, CA 91915 $573,490 2,157 sq. ft. $266
2017-06-27 Condo Mediterranean/Spanish 1148 La Vida Ct Chula Vista, CA 91915 $515,900 1,607 sq. ft. $321
2017-06-19 Condo 2134 Dune Evening Drive Chula Vista, CA 91915 $450,000 1,713 sq. ft. $263
2016-06-15 Condo 2134 Northshore Chula Vista, CA 91913 $375,000 1,570 sq. ft. $239
2016-05-13 Condo 1446 Caminito Sardinia Chula Vista, CA 91915 $420,000 1,810 sq. ft. $232